createdAt,value
2017-08-02T00:02:11.088Z,90.00
2017-08-02T00:04:37.396Z,90.20
2017-08-02T00:07:03.840Z,90.40
2017-08-02T00:09:30.127Z,90.60
2017-08-02T00:11:57.127Z,90.70
2017-08-02T00:14:23.432Z,90.70
2017-08-02T00:16:49.898Z,90.90
2017-08-02T00:19:16.169Z,91.00
2017-08-02T00:21:43.211Z,91.20
2017-08-02T00:24:09.648Z,91.20
2017-08-02T00:26:36.680Z,91.50
2017-08-02T00:29:02.988Z,91.50
2017-08-02T00:31:29.300Z,91.50
2017-08-02T00:33:55.571Z,91.70
2017-08-02T00:36:22.624Z,92.30
2017-08-02T00:38:48.899Z,92.10
2017-08-02T00:41:15.214Z,92.20
2017-08-02T00:43:41.644Z,92.10
2017-08-02T00:46:07.917Z,92.20
2017-08-02T00:48:34.259Z,92.20
2017-08-02T00:51:01.299Z,92.50
2017-08-02T00:53:27.696Z,92.20
2017-08-02T00:55:54.019Z,92.30
2017-08-02T00:58:20.290Z,92.30
2017-08-02T01:00:46.608Z,92.40
2017-08-02T01:03:12.903Z,92.20
2017-08-02T01:05:39.524Z,92.00
2017-08-02T01:08:05.825Z,91.90
2017-08-02T01:10:32.904Z,91.30
2017-08-02T01:12:59.205Z,91.30
2017-08-02T01:15:25.549Z,91.10
2017-08-02T01:17:52.582Z,90.90
2017-08-02T01:20:18.857Z,90.90
2017-08-02T01:22:45.225Z,91.10
2017-08-02T01:25:11.721Z,91.10
2017-08-02T01:27:38.015Z,91.30
2017-08-02T01:30:05.039Z,91.90
2017-08-02T01:32:31.406Z,91.70
2017-08-02T01:34:57.711Z,92.00
2017-08-02T01:37:24.116Z,91.80
2017-08-02T01:39:50.419Z,91.60
2017-08-02T01:42:16.688Z,91.60
2017-08-02T01:44:42.972Z,91.60
2017-08-02T01:47:09.320Z,91.70
2017-08-02T01:49:35.825Z,91.70
2017-08-02T01:52:02.136Z,91.90
2017-08-02T01:54:29.187Z,92.20
2017-08-02T01:56:56.676Z,92.30
2017-08-02T01:59:22.944Z,92.30
2017-08-02T02:01:49.228Z,92.30
2017-08-02T02:04:15.556Z,92.40
2017-08-02T02:06:41.861Z,92.60
2017-08-02T02:09:08.945Z,92.80
2017-08-02T02:11:35.285Z,92.80
2017-08-02T02:14:01.579Z,92.90
2017-08-02T02:16:27.952Z,93.00
2017-08-02T02:18:54.249Z,93.00
2017-08-02T02:21:20.523Z,93.30
2017-08-02T02:23:46.824Z,93.60
2017-08-02T02:26:13.108Z,93.80
2017-08-02T02:28:39.404Z,94.00
2017-08-02T02:31:05.853Z,93.90
2017-08-02T02:33:32.179Z,94.00
2017-08-02T02:35:58.479Z,94.00
2017-08-02T02:38:24.759Z,93.90
2017-08-02T02:40:51.820Z,93.90
2017-08-02T02:43:18.853Z,93.90
2017-08-02T02:45:45.887Z,94.00
2017-08-02T02:48:12.201Z,94.00
2017-08-02T02:50:38.481Z,94.00
2017-08-02T02:53:04.768Z,94.00
2017-08-02T02:55:31.071Z,94.10
2017-08-02T02:57:57.597Z,94.10
2017-08-02T03:00:24.016Z,94.00
2017-08-02T03:02:50.295Z,94.00
2017-08-02T03:05:16.592Z,94.00
2017-08-02T03:07:42.873Z,94.00
2017-08-02T03:10:10.059Z,94.10
2017-08-02T03:12:36.349Z,94.10
2017-08-02T03:15:02.633Z,94.10
2017-08-02T03:17:28.942Z,94.30
2017-08-02T03:19:55.225Z,94.10
2017-08-02T03:22:21.706Z,94.00
2017-08-02T03:24:48.016Z,93.90
2017-08-02T03:27:14.300Z,93.90
2017-08-02T03:29:41.416Z,93.80
2017-08-02T03:32:07.740Z,93.70
2017-08-02T03:34:34.195Z,93.70
2017-08-02T03:37:00.447Z,93.60
2017-08-02T03:39:26.723Z,93.50
2017-08-02T03:41:53.781Z,93.60
2017-08-02T03:44:20.059Z,93.60
2017-08-02T03:46:46.346Z,93.60
2017-08-02T03:49:12.607Z,93.70
2017-08-02T03:51:38.915Z,93.70
2017-08-02T03:54:05.235Z,93.70
2017-08-02T03:56:31.533Z,93.80
2017-08-02T03:58:58.580Z,93.90
2017-08-02T04:01:25.611Z,93.80
2017-08-02T04:03:52.680Z,93.70
2017-08-02T04:06:19.731Z,94.00
2017-08-02T04:08:46.780Z,93.70
2017-08-02T04:11:13.812Z,93.70
2017-08-02T04:13:40.846Z,94.00
2017-08-02T04:16:07.918Z,93.70
2017-08-02T04:18:34.240Z,93.70
2017-08-02T04:21:01.292Z,93.50
2017-08-02T04:23:27.665Z,93.50
2017-08-02T04:25:54.025Z,93.40
2017-08-02T04:28:20.328Z,93.30
2017-08-02T04:30:46.643Z,93.20
2017-08-02T04:33:12.976Z,93.00
2017-08-02T04:35:39.245Z,92.90
2017-08-02T04:38:05.529Z,92.50
2017-08-02T04:40:31.860Z,92.10
2017-08-02T04:42:58.324Z,91.80
2017-08-02T04:45:24.643Z,91.60
2017-08-02T04:47:50.921Z,91.60
2017-08-02T04:50:17.229Z,91.50
2017-08-02T04:52:43.500Z,91.40
2017-08-02T04:55:09.826Z,91.30
2017-08-02T04:57:36.151Z,91.30
2017-08-02T05:00:03.147Z,90.80
2017-08-02T05:02:29.480Z,90.80
2017-08-02T05:04:55.896Z,90.50
2017-08-02T05:07:22.241Z,89.90
2017-08-02T05:09:48.529Z,87.90
2017-08-02T05:12:14.848Z,87.10
2017-08-02T05:14:41.145Z,86.90
2017-08-02T05:17:07.472Z,86.50
2017-08-02T05:19:33.776Z,85.40
2017-08-02T05:22:00.203Z,84.10
2017-08-02T05:24:26.493Z,82.70
2017-08-02T05:26:53.637Z,76.80
2017-08-02T05:29:19.956Z,76.70
2017-08-02T05:31:46.312Z,75.30
2017-08-02T05:34:12.604Z,74.30
2017-08-02T05:36:38.904Z,73.20
2017-08-02T05:39:05.201Z,72.20
2017-08-02T05:41:31.508Z,69.50
2017-08-02T05:43:57.875Z,67.50
2017-08-02T05:46:24.183Z,65.80
2017-08-02T05:48:51.422Z,60.00
2017-08-02T05:51:17.776Z,60.00
2017-08-02T05:53:44.103Z,56.30
2017-08-02T05:56:11.115Z,47.00
2017-08-02T05:58:37.399Z,46.80
2017-08-02T06:01:03.761Z,42.20
2017-08-02T06:03:30.115Z,38.90
2017-08-02T06:05:57.155Z,33.60
2017-08-02T06:08:23.445Z,33.60
2017-08-02T06:10:49.785Z,33.20
2017-08-02T06:13:16.315Z,33.10
2017-08-02T06:15:42.580Z,32.40
2017-08-02T06:18:08.897Z,33.60
2017-08-02T06:20:35.219Z,35.70
2017-08-02T06:23:01.599Z,37.50
2017-08-02T06:25:27.932Z,40.00
2017-08-02T06:27:54.989Z,44.60
2017-08-02T06:30:21.292Z,44.60
2017-08-02T06:32:48.347Z,46.00
2017-08-02T06:35:15.459Z,46.90
2017-08-02T06:37:41.752Z,46.90
2017-08-02T06:40:08.081Z,47.60
2017-08-02T06:42:34.397Z,46.60
2017-08-02T06:45:00.680Z,47.50
2017-08-02T06:47:26.971Z,47.80
2017-08-02T06:49:53.256Z,45.90
2017-08-02T06:52:20.310Z,42.20
2017-08-02T06:54:47.353Z,39.80
2017-08-02T06:57:14.373Z,36.80
2017-08-02T06:59:40.691Z,36.10
2017-08-02T07:02:06.984Z,33.50
2017-08-02T07:04:33.283Z,32.50
2017-08-02T07:06:59.569Z,29.30
2017-08-02T07:09:25.884Z,27.70
2017-08-02T07:11:52.200Z,25.40
2017-08-02T07:14:18.496Z,24.20
2017-08-02T07:16:44.780Z,22.40
2017-08-02T07:19:11.077Z,21.70
2017-08-02T07:21:37.377Z,21.70
2017-08-02T07:24:03.653Z,22.90
2017-08-02T07:26:29.953Z,25.30
2017-08-02T07:28:56.247Z,26.70
2017-08-02T07:31:22.523Z,24.50
2017-08-02T07:33:48.891Z,22.80
2017-08-02T07:36:15.286Z,22.50
2017-08-02T07:38:42.329Z,22.90
2017-08-02T07:41:09.384Z,21.80
2017-08-02T07:43:35.724Z,21.80
2017-08-02T07:46:02.035Z,21.10
2017-08-02T07:48:29.095Z,22.10
2017-08-02T07:50:56.123Z,23.30
2017-08-02T07:53:22.436Z,23.40
2017-08-02T07:55:48.728Z,24.30
2017-08-02T07:58:15.071Z,24.80
2017-08-02T08:00:41.395Z,24.60
2017-08-02T08:03:07.749Z,24.60
2017-08-02T08:05:34.125Z,22.80
2017-08-02T08:08:01.155Z,20.40
2017-08-02T08:10:28.231Z,20.10
2017-08-02T08:12:54.549Z,20.10
2017-08-02T08:15:21.587Z,19.40
2017-08-02T08:17:48.627Z,19.60
2017-08-02T08:20:15.677Z,19.40
2017-08-02T08:22:42.751Z,19.00
2017-08-02T08:25:09.031Z,18.90
2017-08-02T08:27:35.349Z,17.90
2017-08-02T08:30:01.660Z,17.40
2017-08-02T08:32:27.922Z,17.50
2017-08-02T08:34:54.999Z,19.00
2017-08-02T08:37:22.032Z,20.20
2017-08-02T08:39:48.380Z,20.20
2017-08-02T08:42:14.684Z,21.50
2017-08-02T08:44:40.971Z,22.40
2017-08-02T08:47:07.276Z,22.40
2017-08-02T08:49:33.559Z,20.20
2017-08-02T08:51:59.843Z,18.60
2017-08-02T08:54:26.432Z,17.90
2017-08-02T08:56:53.459Z,16.30
2017-08-02T08:59:19.777Z,16.10
2017-08-02T09:01:46.100Z,15.40
2017-08-02T09:04:12.531Z,15.30
2017-08-02T09:06:38.841Z,16.30
2017-08-02T09:09:05.240Z,15.90
2017-08-02T09:11:31.584Z,16.40
2017-08-02T09:13:58.029Z,16.10
2017-08-02T09:16:24.336Z,15.70
2017-08-02T09:18:50.673Z,16.00
2017-08-02T09:21:16.992Z,17.10
2017-08-02T09:23:44.060Z,16.10
2017-08-02T09:26:10.354Z,16.10
2017-08-02T09:28:36.646Z,16.40
2017-08-02T09:31:02.957Z,15.90
2017-08-02T09:33:29.276Z,15.40
2017-08-02T09:36:03.312Z,16.50
2017-08-02T09:38:29.857Z,16.40
2017-08-02T09:40:56.183Z,16.80
2017-08-02T09:43:22.508Z,17.00
2017-08-02T09:45:48.792Z,17.20
2017-08-02T09:48:15.112Z,17.50
2017-08-02T09:50:41.444Z,17.30
2017-08-02T09:53:07.772Z,18.00
2017-08-02T09:55:34.371Z,18.20
2017-08-02T09:58:00.673Z,19.10
2017-08-02T10:00:27.015Z,19.60
2017-08-02T10:02:53.318Z,21.10
2017-08-02T10:05:20.344Z,23.70
2017-08-02T10:07:46.644Z,23.60
2017-08-02T10:10:12.923Z,24.00
2017-08-02T10:12:39.968Z,27.60
2017-08-02T10:15:07.025Z,28.30
2017-08-02T10:17:34.063Z,29.00
2017-08-02T10:20:01.126Z,30.20
2017-08-02T10:22:28.281Z,30.50
2017-08-02T10:24:54.606Z,30.50
2017-08-02T10:27:21.683Z,29.90
2017-08-02T10:29:48.080Z,29.90
2017-08-02T10:32:15.121Z,30.60
2017-08-02T10:34:41.547Z,30.70
2017-08-02T10:37:08.612Z,30.20
2017-08-02T10:39:35.656Z,29.70
2017-08-02T10:42:02.716Z,30.00
2017-08-02T10:44:28.996Z,30.00
2017-08-02T10:46:55.322Z,29.70
2017-08-02T10:49:21.629Z,29.60
2017-08-02T10:51:47.968Z,29.10
2017-08-02T10:54:14.231Z,29.70
2017-08-02T10:56:40.570Z,29.90
2017-08-02T10:59:07.817Z,30.90
2017-08-02T11:01:34.114Z,30.90
2017-08-02T11:04:00.407Z,30.80
2017-08-02T11:06:26.711Z,30.00
2017-08-02T11:08:53.771Z,29.70
2017-08-02T11:11:20.835Z,29.70
2017-08-02T11:13:47.163Z,29.70
2017-08-02T11:16:13.581Z,30.10
2017-08-02T11:18:40.630Z,31.10
2017-08-02T11:21:07.628Z,30.70
2017-08-02T11:23:33.920Z,30.60
2017-08-02T11:26:00.252Z,31.40
2017-08-02T11:28:26.547Z,32.40
2017-08-02T11:30:53.629Z,31.00
2017-08-02T11:33:19.907Z,30.60
2017-08-02T11:35:46.192Z,30.20
2017-08-02T11:38:12.504Z,31.30
2017-08-02T11:40:38.759Z,32.30
2017-08-02T11:43:05.079Z,31.20
2017-08-02T11:45:31.373Z,30.60
2017-08-02T11:47:58.489Z,31.20
2017-08-02T11:50:24.813Z,31.10
2017-08-02T11:52:51.091Z,31.90
2017-08-02T11:55:18.269Z,32.20
2017-08-02T11:57:44.585Z,32.20
2017-08-02T12:00:10.874Z,30.60
2017-08-02T12:02:37.930Z,33.60
2017-08-02T12:05:04.233Z,33.60
2017-08-02T12:07:30.531Z,32.00
2017-08-02T12:09:56.795Z,31.50
2017-08-02T12:12:23.083Z,30.90
2017-08-02T12:14:49.394Z,30.80
2017-08-02T12:17:15.887Z,29.70
2017-08-02T12:19:42.389Z,28.10
2017-08-02T12:22:08.694Z,29.60
2017-08-02T12:24:35.733Z,30.40
2017-08-02T12:27:02.179Z,30.40
2017-08-02T12:29:28.500Z,30.70
2017-08-02T12:31:55.592Z,31.20
2017-08-02T12:34:22.008Z,31.00
2017-08-02T12:36:48.291Z,31.00
2017-08-02T12:39:14.589Z,31.40
2017-08-02T12:41:40.911Z,31.80
2017-08-02T12:44:07.201Z,31.50
2017-08-02T12:46:33.521Z,32.20
2017-08-02T12:49:00.551Z,31.90
2017-08-02T12:51:26.892Z,31.80
2017-08-02T12:53:54.036Z,30.30
2017-08-02T12:56:20.352Z,30.90
2017-08-02T12:58:46.659Z,31.80
2017-08-02T13:01:12.941Z,30.30
2017-08-02T13:03:40.133Z,30.70
2017-08-02T13:06:06.445Z,30.60
2017-08-02T13:08:32.740Z,30.80
2017-08-02T13:10:59.877Z,32.50
2017-08-02T13:13:26.202Z,32.40
2017-08-02T13:15:53.373Z,33.40
2017-08-02T13:18:20.432Z,32.80
2017-08-02T13:20:47.481Z,33.30
2017-08-02T13:23:14.516Z,34.70
2017-08-02T13:25:47.854Z,34.60
2017-08-02T13:28:14.200Z,33.20
2017-08-02T13:30:40.503Z,33.00
2017-08-02T13:33:06.791Z,32.60
2017-08-02T13:35:33.104Z,32.40
2017-08-02T13:37:59.464Z,33.60
2017-08-02T13:40:26.515Z,31.60
2017-08-02T13:42:53.546Z,31.20
2017-08-02T13:45:20.654Z,32.00
2017-08-02T13:47:46.975Z,32.00
2017-08-02T13:50:13.510Z,33.00
2017-08-02T13:52:39.856Z,33.00
2017-08-02T13:55:06.195Z,34.00
2017-08-02T13:57:32.560Z,34.40
2017-08-02T13:59:59.640Z,33.00
2017-08-02T14:02:26.193Z,33.00
2017-08-02T14:04:52.484Z,33.70
2017-08-02T14:07:19.610Z,33.90
2017-08-02T14:09:46.655Z,34.70
2017-08-02T14:12:12.972Z,34.10
2017-08-02T14:14:39.272Z,34.20
2017-08-02T14:17:05.537Z,34.40
2017-08-02T14:19:31.857Z,34.00
2017-08-02T14:21:58.180Z,35.00
2017-08-02T14:24:24.481Z,34.90
2017-08-02T14:26:50.788Z,34.90
2017-08-02T14:29:17.075Z,35.40
2017-08-02T14:31:43.373Z,35.30
2017-08-02T14:34:09.864Z,35.80
2017-08-02T14:36:36.900Z,36.20
2017-08-02T14:39:04.104Z,36.00
2017-08-02T14:41:30.386Z,36.00
2017-08-02T14:43:56.695Z,35.50
2017-08-02T14:46:22.983Z,35.80
2017-08-02T14:48:49.300Z,36.70
2017-08-02T14:51:15.675Z,35.30
2017-08-02T14:53:41.988Z,35.90
2017-08-02T14:56:08.475Z,36.10
2017-08-02T14:58:35.522Z,35.90
2017-08-02T15:01:02.559Z,35.60
2017-08-02T15:03:28.879Z,35.50
2017-08-02T15:05:55.338Z,35.10
2017-08-02T15:08:22.407Z,34.40
2017-08-02T15:10:48.715Z,34.40
2017-08-02T15:13:15.007Z,33.40
2017-08-02T15:15:41.368Z,33.90
2017-08-02T15:18:08.399Z,34.80
2017-08-02T15:20:34.713Z,34.10
2017-08-02T15:23:01.001Z,34.20
2017-08-02T15:25:27.307Z,34.20
2017-08-02T15:27:54.402Z,33.40
2017-08-02T15:30:20.673Z,33.40
2017-08-02T15:32:46.964Z,32.80
2017-08-02T15:35:13.358Z,33.10
2017-08-02T15:37:39.688Z,33.50
2017-08-02T15:40:06.026Z,32.50
2017-08-02T15:42:32.336Z,34.30
2017-08-02T15:44:58.667Z,33.70
2017-08-02T15:47:24.980Z,33.60
2017-08-02T15:49:52.051Z,35.10
2017-08-02T15:52:19.072Z,33.80
2017-08-02T15:54:45.384Z,33.80
2017-08-02T15:57:11.687Z,34.50
2017-08-02T15:59:38.157Z,33.50
2017-08-02T16:02:04.466Z,33.80
2017-08-02T16:04:30.847Z,32.50
2017-08-02T16:06:57.941Z,33.30
2017-08-02T16:09:24.251Z,33.30
2017-08-02T16:11:50.599Z,33.30
2017-08-02T16:14:16.897Z,33.60
2017-08-02T16:16:50.215Z,33.20
2017-08-02T16:19:16.496Z,33.30
2017-08-02T16:21:42.828Z,34.00
2017-08-02T16:24:09.111Z,34.20
2017-08-02T16:26:35.579Z,35.00
2017-08-02T16:29:02.651Z,35.80
2017-08-02T16:31:29.684Z,36.60
2017-08-02T16:33:56.070Z,36.60
2017-08-02T16:36:22.425Z,35.80
2017-08-02T16:38:48.938Z,35.10
2017-08-02T16:41:15.315Z,35.20
2017-08-02T16:43:41.644Z,35.00
2017-08-02T16:46:08.704Z,36.70
2017-08-02T16:48:35.739Z,35.40
2017-08-02T16:51:02.776Z,35.70
2017-08-02T16:53:30.101Z,36.90
2017-08-02T16:55:56.444Z,36.90
2017-08-02T16:58:22.758Z,36.70
2017-08-02T17:00:49.041Z,36.50
2017-08-02T17:03:15.430Z,38.30
2017-08-02T17:05:41.924Z,37.70
2017-08-02T17:08:08.231Z,38.00
2017-08-02T17:10:35.295Z,39.20
2017-08-02T17:13:01.705Z,39.20
2017-08-02T17:15:28.058Z,38.70
2017-08-02T17:17:54.387Z,38.70
2017-08-02T17:20:20.684Z,39.30
2017-08-02T17:22:47.034Z,38.70
2017-08-02T17:25:14.132Z,39.40
2017-08-02T17:27:40.473Z,39.40
2017-08-02T17:30:06.780Z,39.60
2017-08-02T17:32:33.115Z,40.10
2017-08-02T17:34:59.495Z,40.20
2017-08-02T17:37:25.968Z,39.30
2017-08-02T17:39:52.263Z,39.80
2017-08-02T17:42:19.511Z,40.20
2017-08-02T17:44:45.937Z,40.20
2017-08-02T17:47:12.276Z,40.20
2017-08-02T17:49:39.372Z,40.90
2017-08-02T17:52:05.711Z,40.90
2017-08-02T17:54:32.348Z,41.20
2017-08-02T17:56:58.651Z,41.40
2017-08-02T17:59:24.946Z,41.30
2017-08-02T18:01:52.012Z,42.50
2017-08-02T18:04:18.556Z,42.30
2017-08-02T18:06:44.890Z,42.60
2017-08-02T18:09:11.204Z,43.20
2017-08-02T18:11:37.549Z,43.40
2017-08-02T18:14:03.840Z,44.00
2017-08-02T18:16:30.184Z,44.10
2017-08-02T18:18:57.221Z,44.00
2017-08-02T18:21:24.304Z,44.40
2017-08-02T18:23:50.616Z,44.40
2017-08-02T18:26:16.944Z,44.60
2017-08-02T18:28:43.327Z,44.70
2017-08-02T18:31:09.844Z,44.90
2017-08-02T18:33:36.196Z,45.40
2017-08-02T18:36:02.733Z,45.90
2017-08-02T18:38:29.031Z,46.40
2017-08-02T18:40:55.475Z,46.70
2017-08-02T18:43:21.832Z,46.80
2017-08-02T18:45:48.232Z,46.70
2017-08-02T18:48:14.530Z,46.80
2017-08-02T18:50:40.870Z,46.50
2017-08-02T18:53:07.243Z,46.30
2017-08-02T18:55:33.614Z,46.60
2017-08-02T18:58:00.101Z,46.60
2017-08-02T19:00:26.418Z,47.30
2017-08-02T19:02:52.747Z,47.30
2017-08-02T19:05:19.116Z,47.20
2017-08-02T19:07:45.405Z,47.80
2017-08-02T19:10:11.751Z,48.30
2017-08-02T19:12:38.106Z,48.60
2017-08-02T19:15:04.459Z,49.50
2017-08-02T19:17:30.828Z,49.90
2017-08-02T19:19:57.250Z,50.50
2017-08-02T19:22:23.680Z,49.70
2017-08-02T19:24:50.134Z,49.60
2017-08-02T19:27:16.708Z,49.40
2017-08-02T19:29:43.341Z,50.00
2017-08-02T19:32:09.794Z,50.70
2017-08-02T19:34:36.658Z,51.70
2017-08-02T19:37:03.080Z,51.00
2017-08-02T19:39:29.838Z,51.30
2017-08-02T19:41:56.675Z,52.30
2017-08-02T19:44:23.317Z,52.40
2017-08-02T19:46:49.741Z,53.10
2017-08-02T19:49:16.484Z,53.70
2017-08-02T19:51:43.229Z,54.00
2017-08-02T19:54:09.784Z,54.30
2017-08-02T19:56:36.213Z,54.80
2017-08-02T19:59:02.607Z,56.00
2017-08-02T20:01:28.990Z,56.20
2017-08-02T20:03:55.354Z,56.20
2017-08-02T20:06:22.448Z,57.50
2017-08-02T20:08:48.830Z,57.40
2017-08-02T20:11:15.163Z,57.80
2017-08-02T20:13:41.576Z,57.80
2017-08-02T20:16:07.947Z,57.60
2017-08-02T20:18:34.293Z,57.90
2017-08-02T20:21:00.622Z,58.60
2017-08-02T20:23:27.200Z,58.60
2017-08-02T20:25:53.592Z,58.90
2017-08-02T20:28:19.907Z,58.50
2017-08-02T20:30:46.247Z,58.50
2017-08-02T20:33:12.560Z,59.00
2017-08-02T20:35:38.901Z,59.50
2017-08-02T20:38:05.271Z,60.20
2017-08-02T20:40:31.691Z,60.60
2017-08-02T20:42:58.232Z,62.30
2017-08-02T20:45:24.575Z,62.20
2017-08-02T20:47:50.928Z,62.20
2017-08-02T20:50:17.255Z,62.20
2017-08-02T20:52:44.344Z,63.00
2017-08-02T20:55:10.696Z,62.80
2017-08-02T20:57:37.002Z,63.10
2017-08-02T21:00:03.364Z,63.20
2017-08-02T21:02:29.855Z,63.60
2017-08-02T21:04:56.171Z,64.20
2017-08-02T21:07:22.505Z,64.80
2017-08-02T21:09:49.601Z,65.60
2017-08-02T21:12:15.999Z,65.60
2017-08-02T21:14:42.378Z,66.30
2017-08-02T21:17:09.571Z,67.40
2017-08-02T21:19:35.974Z,67.90
2017-08-02T21:22:02.341Z,68.50
2017-08-02T21:24:28.713Z,68.30
2017-08-02T21:26:55.014Z,67.90
2017-08-02T21:29:21.672Z,68.20
2017-08-02T21:31:48.217Z,68.10
2017-08-02T21:34:14.704Z,68.10
2017-08-02T21:36:41.851Z,69.50
2017-08-02T21:39:08.945Z,71.00
2017-08-02T21:41:35.289Z,71.00
2017-08-02T21:44:01.645Z,70.90
2017-08-02T21:46:28.048Z,71.30
2017-08-02T21:48:54.349Z,71.90
2017-08-02T21:51:20.653Z,72.00
2017-08-02T21:53:47.877Z,72.10
2017-08-02T21:56:14.213Z,72.10
2017-08-02T21:58:40.614Z,72.20
2017-08-02T22:01:19.215Z,72.50
2017-08-02T22:03:45.553Z,73.00
2017-08-02T22:06:11.940Z,73.40
2017-08-02T22:08:38.955Z,74.80
2017-08-02T22:11:05.272Z,74.80
2017-08-02T22:13:31.594Z,75.00
2017-08-02T22:15:58.397Z,74.90
2017-08-02T22:18:24.748Z,74.40
2017-08-02T22:20:51.097Z,74.10
2017-08-02T22:23:17.514Z,74.10
2017-08-02T22:25:43.836Z,74.20
2017-08-02T22:28:10.587Z,74.60
2017-08-02T22:30:36.956Z,75.20
2017-08-02T22:33:03.241Z,75.40
2017-08-02T22:35:29.565Z,75.80
2017-08-02T22:37:56.509Z,75.90
2017-08-02T22:40:22.809Z,75.90
2017-08-02T22:42:49.110Z,75.90
2017-08-02T22:45:15.442Z,75.90
2017-08-02T22:47:41.725Z,75.80
2017-08-02T22:50:08.072Z,76.40
2017-08-02T22:52:34.524Z,75.90
2017-08-02T22:55:00.855Z,75.90
2017-08-02T22:57:27.180Z,76.20
2017-08-02T22:59:53.487Z,76.50
2017-08-02T23:02:19.787Z,76.80
2017-08-02T23:04:46.094Z,77.10
2017-08-02T23:07:12.399Z,77.60
2017-08-02T23:09:38.703Z,77.80
2017-08-02T23:12:04.970Z,78.50
2017-08-02T23:14:31.267Z,78.40
2017-08-02T23:16:57.580Z,78.40
2017-08-02T23:19:23.872Z,78.50
2017-08-02T23:21:50.176Z,79.20
2017-08-02T23:24:16.475Z,79.30
2017-08-02T23:26:42.780Z,79.70
2017-08-02T23:29:09.815Z,79.70
2017-08-02T23:31:36.127Z,79.60
2017-08-02T23:34:02.453Z,79.70
2017-08-02T23:36:28.760Z,79.90
2017-08-02T23:38:55.096Z,79.90
2017-08-02T23:41:21.406Z,80.10
2017-08-02T23:43:47.697Z,80.40
2017-08-02T23:46:13.959Z,80.20
2017-08-02T23:48:40.268Z,80.00
2017-08-02T23:51:07.295Z,80.50
2017-08-02T23:53:34.355Z,81.40
2017-08-02T23:56:01.555Z,80.40
2017-08-02T23:58:28.012Z,80.40
